sensor_id;sensor_type;location;lat;lon;timestamp;temperature;humidity
26599;DHT22;14240;51.064;16.612;2024-02-21T00:00:47;7.60;99.90
26599;DHT22;14240;51.064;16.612;2024-02-21T00:03:13;7.60;99.90
26599;DHT22;14240;51.064;16.612;2024-02-21T00:05:38;7.60;99.90
26599;DHT22;14240;51.064;16.612;2024-02-21T00:08:04;7.60;99.90
26599;DHT22;14240;51.064;16.612;2024-02-21T00:10:30;7.60;99.90
26599;DHT22;14240;51.064;16.612;2024-02-21T00:12:57;7.50;99.90
26599;DHT22;14240;51.064;16.612;2024-02-21T00:15:24;7.60;99.90
26599;DHT22;14240;51.064;16.612;2024-02-21T00:17:50;7.50;99.90
26599;DHT22;14240;51.064;16.612;2024-02-21T00:20:16;7.60;99.90
26599;DHT22;14240;51.064;16.612;2024-02-21T00:22:41;7.60;99.90
26599;DHT22;14240;51.064;16.612;2024-02-21T00:25:07;7.60;99.90
26599;DHT22;14240;51.064;16.612;2024-02-21T00:27:33;7.50;99.90
26599;DHT22;14240;51.064;16.612;2024-02-21T00:29:59;7.60;99.90
26599;DHT22;14240;51.064;16.612;2024-02-21T00:32:24;7.60;99.90
26599;DHT22;14240;51.064;16.612;2024-02-21T00:34:50;7.60;99.90
26599;DHT22;14240;51.064;16.612;2024-02-21T00:37:15;7.60;99.90
26599;DHT22;14240;51.064;16.612;2024-02-21T00:39:41;7.60;99.90
26599;DHT22;14240;51.064;16.612;2024-02-21T00:42:07;7.60;99.90
26599;DHT22;14240;51.064;16.612;2024-02-21T00:44:33;7.60;99.90
26599;DHT22;14240;51.064;16.612;2024-02-21T00:46:59;7.60;99.90
26599;DHT22;14240;51.064;16.612;2024-02-21T00:49:24;7.60;99.90
26599;DHT22;14240;51.064;16.612;2024-02-21T00:51:50;7.60;99.90
26599;DHT22;14240;51.064;16.612;2024-02-21T00:54:16;7.60;99.90
26599;DHT22;14240;51.064;16.612;2024-02-21T00:56:42;7.70;99.90
26599;DHT22;14240;51.064;16.612;2024-02-21T00:59:08;7.70;99.90
26599;DHT22;14240;51.064;16.612;2024-02-21T01:01:33;7.70;99.90
26599;DHT22;14240;51.064;16.612;2024-02-21T01:03:59;7.70;99.90
26599;DHT22;14240;51.064;16.612;2024-02-21T01:06:25;7.70;99.90
26599;DHT22;14240;51.064;16.612;2024-02-21T01:08:51;7.70;99.90
26599;DHT22;14240;51.064;16.612;2024-02-21T01:11:17;7.70;99.90
26599;DHT22;14240;51.064;16.612;2024-02-21T01:13:42;7.70;99.90
26599;DHT22;14240;51.064;16.612;2024-02-21T01:16:08;7.70;99.90
26599;DHT22;14240;51.064;16.612;2024-02-21T01:18:36;8.20;99.90
26599;DHT22;14240;51.064;16.612;2024-02-21T01:21:02;7.80;99.90
26599;DHT22;14240;51.064;16.612;2024-02-21T01:23:28;7.70;99.90
26599;DHT22;14240;51.064;16.612;2024-02-21T01:25:54;7.80;99.90
26599;DHT22;14240;51.064;16.612;2024-02-21T01:28:21;7.80;99.90
26599;DHT22;14240;51.064;16.612;2024-02-21T01:30:46;7.80;99.90
26599;DHT22;14240;51.064;16.612;2024-02-21T01:33:12;7.80;99.90
26599;DHT22;14240;51.064;16.612;2024-02-21T01:35:37;7.80;99.90
26599;DHT22;14240;51.064;16.612;2024-02-21T01:38:03;7.80;99.90
26599;DHT22;14240;51.064;16.612;2024-02-21T01:40:30;7.70;99.90
26599;DHT22;14240;51.064;16.612;2024-02-21T01:42:55;7.80;99.90
26599;DHT22;14240;51.064;16.612;2024-02-21T01:45:21;7.80;99.90
26599;DHT22;14240;51.064;16.612;2024-02-21T01:47:48;7.80;99.90
26599;DHT22;14240;51.064;16.612;2024-02-21T01:50:15;7.80;99.90
26599;DHT22;14240;51.064;16.612;2024-02-21T01:52:43;7.80;99.90
26599;DHT22;14240;51.064;16.612;2024-02-21T01:55:11;7.80;99.90
26599;DHT22;14240;51.064;16.612;2024-02-21T01:57:42;7.70;99.90
26599;DHT22;14240;51.064;16.612;2024-02-21T02:00:12;7.70;99.90
26599;DHT22;14240;51.064;16.612;2024-02-21T02:02:39;7.70;99.90
26599;DHT22;14240;51.064;16.612;2024-02-21T02:05:07;7.70;99.90
26599;DHT22;14240;51.064;16.612;2024-02-21T02:07:33;7.60;99.90
26599;DHT22;14240;51.064;16.612;2024-02-21T02:09:59;7.60;99.90
26599;DHT22;14240;51.064;16.612;2024-02-21T02:12:25;7.60;99.90
26599;DHT22;14240;51.064;16.612;2024-02-21T02:15:01;7.60;99.90
26599;DHT22;14240;51.064;16.612;2024-02-21T02:17:30;7.60;99.90
26599;DHT22;14240;51.064;16.612;2024-02-21T02:19:56;7.60;99.90
26599;DHT22;14240;51.064;16.612;2024-02-21T02:22:26;7.60;99.90
26599;DHT22;14240;51.064;16.612;2024-02-21T02:24:53;7.60;99.90
26599;DHT22;14240;51.064;16.612;2024-02-21T02:27:19;7.60;99.90
26599;DHT22;14240;51.064;16.612;2024-02-21T02:29:44;7.50;99.90
26599;DHT22;14240;51.064;16.612;2024-02-21T02:32:11;7.60;99.90
26599;DHT22;14240;51.064;16.612;2024-02-21T02:34:37;7.60;99.90
26599;DHT22;14240;51.064;16.612;2024-02-21T02:37:03;7.60;99.90
26599;DHT22;14240;51.064;16.612;2024-02-21T02:39:29;7.60;99.90
26599;DHT22;14240;51.064;16.612;2024-02-21T02:41:54;7.60;99.90
26599;DHT22;14240;51.064;16.612;2024-02-21T02:44:20;7.60;99.90
26599;DHT22;14240;51.064;16.612;2024-02-21T02:46:46;7.60;99.90
26599;DHT22;14240;51.064;16.612;2024-02-21T02:49:12;7.60;99.90
26599;DHT22;14240;51.064;16.612;2024-02-21T02:51:42;7.60;99.90
26599;DHT22;14240;51.064;16.612;2024-02-21T02:54:08;7.60;99.90
26599;DHT22;14240;51.064;16.612;2024-02-21T02:56:33;7.60;99.90
26599;DHT22;14240;51.064;16.612;2024-02-21T02:58:59;7.60;99.90
26599;DHT22;14240;51.064;16.612;2024-02-21T03:01:25;7.60;99.90
26599;DHT22;14240;51.064;16.612;2024-02-21T03:03:50;7.60;99.90
26599;DHT22;14240;51.064;16.612;2024-02-21T03:06:16;7.60;99.90
26599;DHT22;14240;51.064;16.612;2024-02-21T03:08:42;7.60;99.90
26599;DHT22;14240;51.064;16.612;2024-02-21T03:11:08;7.70;99.90
26599;DHT22;14240;51.064;16.612;2024-02-21T03:13:34;7.60;99.90
26599;DHT22;14240;51.064;16.612;2024-02-21T03:15:59;7.60;99.90
26599;DHT22;14240;51.064;16.612;2024-02-21T03:18:25;7.60;99.90
26599;DHT22;14240;51.064;16.612;2024-02-21T03:20:51;7.70;99.90
26599;DHT22;14240;51.064;16.612;2024-02-21T03:23:16;7.60;99.90
26599;DHT22;14240;51.064;16.612;2024-02-21T03:25:42;7.70;99.90
26599;DHT22;14240;51.064;16.612;2024-02-21T03:28:08;7.60;99.90
26599;DHT22;14240;51.064;16.612;2024-02-21T03:30:33;7.60;99.90
26599;DHT22;14240;51.064;16.612;2024-02-21T03:32:59;7.70;99.90
26599;DHT22;14240;51.064;16.612;2024-02-21T03:35:26;7.70;99.90
26599;DHT22;14240;51.064;16.612;2024-02-21T03:37:53;7.70;99.90
26599;DHT22;14240;51.064;16.612;2024-02-21T03:40:19;7.70;99.90
26599;DHT22;14240;51.064;16.612;2024-02-21T03:42:44;7.70;99.90
26599;DHT22;14240;51.064;16.612;2024-02-21T03:45:10;7.70;99.90
26599;DHT22;14240;51.064;16.612;2024-02-21T03:47:36;7.70;99.90
26599;DHT22;14240;51.064;16.612;2024-02-21T03:50:01;7.70;99.90
26599;DHT22;14240;51.064;16.612;2024-02-21T03:52:27;7.70;99.90
26599;DHT22;14240;51.064;16.612;2024-02-21T03:54:53;7.70;99.90
26599;DHT22;14240;51.064;16.612;2024-02-21T03:57:20;7.70;99.90
26599;DHT22;14240;51.064;16.612;2024-02-21T03:59:46;7.70;99.90
26599;DHT22;14240;51.064;16.612;2024-02-21T04:02:15;7.70;99.90
26599;DHT22;14240;51.064;16.612;2024-02-21T04:04:43;7.70;99.90
26599;DHT22;14240;51.064;16.612;2024-02-21T04:07:12;7.70;99.90
26599;DHT22;14240;51.064;16.612;2024-02-21T04:09:37;7.70;99.90
26599;DHT22;14240;51.064;16.612;2024-02-21T04:12:03;7.70;99.90
26599;DHT22;14240;51.064;16.612;2024-02-21T04:14:29;7.70;99.90
26599;DHT22;14240;51.064;16.612;2024-02-21T04:16:55;7.70;99.90
26599;DHT22;14240;51.064;16.612;2024-02-21T04:19:21;7.70;99.90
26599;DHT22;14240;51.064;16.612;2024-02-21T04:21:46;7.70;99.90
26599;DHT22;14240;51.064;16.612;2024-02-21T04:24:12;7.70;99.90
26599;DHT22;14240;51.064;16.612;2024-02-21T04:26:38;7.70;99.90
26599;DHT22;14240;51.064;16.612;2024-02-21T04:29:04;7.70;99.90
26599;DHT22;14240;51.064;16.612;2024-02-21T04:31:31;7.70;99.90
26599;DHT22;14240;51.064;16.612;2024-02-21T04:33:57;7.70;99.90
26599;DHT22;14240;51.064;16.612;2024-02-21T04:36:23;7.70;99.90
26599;DHT22;14240;51.064;16.612;2024-02-21T04:38:49;7.70;99.90
26599;DHT22;14240;51.064;16.612;2024-02-21T04:41:15;7.70;99.90
26599;DHT22;14240;51.064;16.612;2024-02-21T04:43:41;7.70;99.90
26599;DHT22;14240;51.064;16.612;2024-02-21T04:46:07;7.70;99.90
26599;DHT22;14240;51.064;16.612;2024-02-21T04:48:32;7.60;99.90
26599;DHT22;14240;51.064;16.612;2024-02-21T04:50:59;7.70;99.90
26599;DHT22;14240;51.064;16.612;2024-02-21T04:53:24;7.70;99.90
26599;DHT22;14240;51.064;16.612;2024-02-21T04:55:50;7.60;99.90
26599;DHT22;14240;51.064;16.612;2024-02-21T04:58:16;7.70;99.90
26599;DHT22;14240;51.064;16.612;2024-02-21T05:00:41;7.70;99.90
26599;DHT22;14240;51.064;16.612;2024-02-21T05:03:07;7.70;99.90
26599;DHT22;14240;51.064;16.612;2024-02-21T05:05:33;7.70;99.90
26599;DHT22;14240;51.064;16.612;2024-02-21T05:07:58;7.70;99.90
26599;DHT22;14240;51.064;16.612;2024-02-21T05:10:24;7.70;99.90
26599;DHT22;14240;51.064;16.612;2024-02-21T05:12:50;7.70;99.90
26599;DHT22;14240;51.064;16.612;2024-02-21T05:15:16;7.70;99.90
26599;DHT22;14240;51.064;16.612;2024-02-21T05:17:41;7.70;99.90
26599;DHT22;14240;51.064;16.612;2024-02-21T05:20:09;7.70;99.90
26599;DHT22;14240;51.064;16.612;2024-02-21T05:22:34;7.70;99.90
26599;DHT22;14240;51.064;16.612;2024-02-21T05:25:00;7.70;99.90
26599;DHT22;14240;51.064;16.612;2024-02-21T05:27:26;7.70;99.90
26599;DHT22;14240;51.064;16.612;2024-02-21T05:29:53;7.70;99.90
26599;DHT22;14240;51.064;16.612;2024-02-21T05:32:19;7.70;99.90
26599;DHT22;14240;51.064;16.612;2024-02-21T05:34:48;7.70;99.90
26599;DHT22;14240;51.064;16.612;2024-02-21T05:37:15;7.70;99.90
26599;DHT22;14240;51.064;16.612;2024-02-21T05:39:40;7.70;99.90
26599;DHT22;14240;51.064;16.612;2024-02-21T05:42:06;7.70;99.90
26599;DHT22;14240;51.064;16.612;2024-02-21T05:44:32;7.70;99.90
26599;DHT22;14240;51.064;16.612;2024-02-21T05:46:58;7.70;99.90
26599;DHT22;14240;51.064;16.612;2024-02-21T05:49:23;7.70;99.90
26599;DHT22;14240;51.064;16.612;2024-02-21T05:51:49;7.70;99.90
26599;DHT22;14240;51.064;16.612;2024-02-21T05:54:15;7.70;99.90
26599;DHT22;14240;51.064;16.612;2024-02-21T05:56:45;7.70;99.90
26599;DHT22;14240;51.064;16.612;2024-02-21T05:59:11;7.70;99.90
26599;DHT22;14240;51.064;16.612;2024-02-21T06:01:37;7.80;99.90
26599;DHT22;14240;51.064;16.612;2024-02-21T06:04:02;7.80;99.90
26599;DHT22;14240;51.064;16.612;2024-02-21T06:06:28;7.80;99.90
26599;DHT22;14240;51.064;16.612;2024-02-21T06:08:54;7.80;99.90
26599;DHT22;14240;51.064;16.612;2024-02-21T06:11:19;7.80;99.90
26599;DHT22;14240;51.064;16.612;2024-02-21T06:13:45;7.80;99.90
26599;DHT22;14240;51.064;16.612;2024-02-21T06:16:11;7.80;99.90
26599;DHT22;14240;51.064;16.612;2024-02-21T06:18:36;7.80;99.90
26599;DHT22;14240;51.064;16.612;2024-02-21T06:21:03;7.80;99.90
26599;DHT22;14240;51.064;16.612;2024-02-21T06:23:29;7.60;99.90
26599;DHT22;14240;51.064;16.612;2024-02-21T06:25:55;7.80;99.90
26599;DHT22;14240;51.064;16.612;2024-02-21T06:28:21;7.80;99.90
26599;DHT22;14240;51.064;16.612;2024-02-21T06:30:46;7.80;99.90
26599;DHT22;14240;51.064;16.612;2024-02-21T06:33:12;7.80;99.90
26599;DHT22;14240;51.064;16.612;2024-02-21T06:35:38;7.80;99.90
26599;DHT22;14240;51.064;16.612;2024-02-21T06:38:06;7.80;99.90
26599;DHT22;14240;51.064;16.612;2024-02-21T06:40:33;7.80;99.90
26599;DHT22;14240;51.064;16.612;2024-02-21T06:43:04;7.80;99.90
26599;DHT22;14240;51.064;16.612;2024-02-21T06:45:30;7.80;99.90
26599;DHT22;14240;51.064;16.612;2024-02-21T06:47:55;7.80;99.90
26599;DHT22;14240;51.064;16.612;2024-02-21T06:50:21;7.90;99.90
26599;DHT22;14240;51.064;16.612;2024-02-21T06:52:47;7.90;99.90
26599;DHT22;14240;51.064;16.612;2024-02-21T06:55:12;7.90;99.90
26599;DHT22;14240;51.064;16.612;2024-02-21T06:57:38;7.90;99.90
26599;DHT22;14240;51.064;16.612;2024-02-21T07:00:04;7.90;99.90
26599;DHT22;14240;51.064;16.612;2024-02-21T07:02:33;7.90;99.90
26599;DHT22;14240;51.064;16.612;2024-02-21T07:04:59;7.90;99.90
26599;DHT22;14240;51.064;16.612;2024-02-21T07:07:25;8.00;99.90
26599;DHT22;14240;51.064;16.612;2024-02-21T07:09:51;8.00;99.90
26599;DHT22;14240;51.064;16.612;2024-02-21T07:12:17;8.00;99.90
26599;DHT22;14240;51.064;16.612;2024-02-21T07:14:42;8.00;99.90
26599;DHT22;14240;51.064;16.612;2024-02-21T07:17:08;8.10;99.90
26599;DHT22;14240;51.064;16.612;2024-02-21T07:19:34;8.10;99.90
26599;DHT22;14240;51.064;16.612;2024-02-21T07:22:01;8.10;99.90
26599;DHT22;14240;51.064;16.612;2024-02-21T07:24:26;8.10;99.90
26599;DHT22;14240;51.064;16.612;2024-02-21T07:26:52;8.10;99.90
26599;DHT22;14240;51.064;16.612;2024-02-21T07:29:18;8.20;99.90
26599;DHT22;14240;51.064;16.612;2024-02-21T07:31:44;8.20;99.90
26599;DHT22;14240;51.064;16.612;2024-02-21T07:34:10;8.30;99.90
26599;DHT22;14240;51.064;16.612;2024-02-21T07:36:36;8.20;99.90
26599;DHT22;14240;51.064;16.612;2024-02-21T07:39:05;8.30;99.90
26599;DHT22;14240;51.064;16.612;2024-02-21T07:41:31;8.30;99.90
26599;DHT22;14240;51.064;16.612;2024-02-21T07:44:00;8.40;99.90
26599;DHT22;14240;51.064;16.612;2024-02-21T07:46:25;8.30;99.90
26599;DHT22;14240;51.064;16.612;2024-02-21T07:48:51;8.40;99.90
26599;DHT22;14240;51.064;16.612;2024-02-21T07:51:17;8.40;99.90
26599;DHT22;14240;51.064;16.612;2024-02-21T07:53:44;8.50;99.90
26599;DHT22;14240;51.064;16.612;2024-02-21T07:56:11;8.50;99.90
26599;DHT22;14240;51.064;16.612;2024-02-21T07:58:37;8.50;99.90
26599;DHT22;14240;51.064;16.612;2024-02-21T08:01:03;8.60;99.90
26599;DHT22;14240;51.064;16.612;2024-02-21T08:03:29;8.60;99.90
26599;DHT22;14240;51.064;16.612;2024-02-21T08:05:54;8.70;99.90
26599;DHT22;14240;51.064;16.612;2024-02-21T08:08:20;8.70;99.90
26599;DHT22;14240;51.064;16.612;2024-02-21T08:10:48;8.70;99.90
26599;DHT22;14240;51.064;16.612;2024-02-21T08:13:14;8.70;99.90
26599;DHT22;14240;51.064;16.612;2024-02-21T08:15:40;8.70;99.90
26599;DHT22;14240;51.064;16.612;2024-02-21T08:18:07;8.80;99.90
26599;DHT22;14240;51.064;16.612;2024-02-21T08:20:33;8.80;99.90
26599;DHT22;14240;51.064;16.612;2024-02-21T08:22:59;8.80;99.90
26599;DHT22;14240;51.064;16.612;2024-02-21T08:25:24;8.90;99.90
26599;DHT22;14240;51.064;16.612;2024-02-21T08:27:50;8.90;99.90
26599;DHT22;14240;51.064;16.612;2024-02-21T08:30:17;8.90;99.90
26599;DHT22;14240;51.064;16.612;2024-02-21T08:32:43;8.90;99.90
26599;DHT22;14240;51.064;16.612;2024-02-21T08:35:09;8.90;99.90
26599;DHT22;14240;51.064;16.612;2024-02-21T08:37:35;9.00;99.90
26599;DHT22;14240;51.064;16.612;2024-02-21T08:40:00;9.00;99.90
26599;DHT22;14240;51.064;16.612;2024-02-21T08:42:38;9.00;99.90
26599;DHT22;14240;51.064;16.612;2024-02-21T08:45:04;9.10;99.90
26599;DHT22;14240;51.064;16.612;2024-02-21T08:47:30;9.10;99.90
26599;DHT22;14240;51.064;16.612;2024-02-21T08:49:56;9.20;99.90
26599;DHT22;14240;51.064;16.612;2024-02-21T08:52:22;9.20;99.90
26599;DHT22;14240;51.064;16.612;2024-02-21T08:54:47;9.20;99.90
26599;DHT22;14240;51.064;16.612;2024-02-21T08:57:13;9.20;99.90
26599;DHT22;14240;51.064;16.612;2024-02-21T08:59:40;9.30;99.90
26599;DHT22;14240;51.064;16.612;2024-02-21T09:02:05;9.20;99.90
26599;DHT22;14240;51.064;16.612;2024-02-21T09:04:33;9.30;99.90
26599;DHT22;14240;51.064;16.612;2024-02-21T09:06:59;9.30;99.90
26599;DHT22;14240;51.064;16.612;2024-02-21T09:09:25;9.30;99.90
26599;DHT22;14240;51.064;16.612;2024-02-21T09:11:50;9.30;99.90
26599;DHT22;14240;51.064;16.612;2024-02-21T09:14:17;9.30;99.90
26599;DHT22;14240;51.064;16.612;2024-02-21T09:16:43;9.40;99.90
26599;DHT22;14240;51.064;16.612;2024-02-21T09:19:09;9.40;99.90
26599;DHT22;14240;51.064;16.612;2024-02-21T09:21:37;9.40;99.90
26599;DHT22;14240;51.064;16.612;2024-02-21T09:24:04;9.40;99.90
26599;DHT22;14240;51.064;16.612;2024-02-21T09:26:30;9.40;99.90
26599;DHT22;14240;51.064;16.612;2024-02-21T09:28:56;9.50;99.90
26599;DHT22;14240;51.064;16.612;2024-02-21T09:31:21;9.50;99.90
26599;DHT22;14240;51.064;16.612;2024-02-21T09:33:47;9.60;99.90
26599;DHT22;14240;51.064;16.612;2024-02-21T09:36:13;9.60;99.90
26599;DHT22;14240;51.064;16.612;2024-02-21T09:38:40;9.60;99.90
26599;DHT22;14240;51.064;16.612;2024-02-21T09:43:36;9.60;99.90
26599;DHT22;14240;51.064;16.612;2024-02-21T09:46:02;9.70;99.90
26599;DHT22;14240;51.064;16.612;2024-02-21T09:48:39;9.70;99.90
26599;DHT22;14240;51.064;16.612;2024-02-21T09:51:09;9.90;99.90
26599;DHT22;14240;51.064;16.612;2024-02-21T09:53:37;10.00;99.90
26599;DHT22;14240;51.064;16.612;2024-02-21T09:56:05;10.20;99.90
26599;DHT22;14240;51.064;16.612;2024-02-21T09:58:33;10.20;99.90
26599;DHT22;14240;51.064;16.612;2024-02-21T10:00:59;10.30;99.90
26599;DHT22;14240;51.064;16.612;2024-02-21T10:03:25;10.30;99.90
26599;DHT22;14240;51.064;16.612;2024-02-21T10:05:51;10.30;99.90
26599;DHT22;14240;51.064;16.612;2024-02-21T10:08:18;10.30;99.90
26599;DHT22;14240;51.064;16.612;2024-02-21T10:10:45;10.20;99.90
26599;DHT22;14240;51.064;16.612;2024-02-21T10:13:25;10.10;99.90
26599;DHT22;14240;51.064;16.612;2024-02-21T10:16:04;10.10;99.90
26599;DHT22;14240;51.064;16.612;2024-02-21T10:18:30;10.00;99.90
26599;DHT22;14240;51.064;16.612;2024-02-21T10:21:03;10.10;99.90
26599;DHT22;14240;51.064;16.612;2024-02-21T10:23:40;10.00;99.90
26599;DHT22;14240;51.064;16.612;2024-02-21T10:26:06;10.10;99.90
26599;DHT22;14240;51.064;16.612;2024-02-21T10:28:32;10.10;99.90
26599;DHT22;14240;51.064;16.612;2024-02-21T10:30:58;10.20;99.90
26599;DHT22;14240;51.064;16.612;2024-02-21T10:33:24;10.20;99.90
26599;DHT22;14240;51.064;16.612;2024-02-21T10:35:51;10.20;99.90
26599;DHT22;14240;51.064;16.612;2024-02-21T10:38:17;10.20;99.90
26599;DHT22;14240;51.064;16.612;2024-02-21T10:40:42;10.20;99.90
26599;DHT22;14240;51.064;16.612;2024-02-21T10:43:12;10.20;99.90
26599;DHT22;14240;51.064;16.612;2024-02-21T10:45:41;10.20;99.90
26599;DHT22;14240;51.064;16.612;2024-02-21T10:48:14;10.30;99.90
26599;DHT22;14240;51.064;16.612;2024-02-21T10:53:36;10.40;99.90
26599;DHT22;14240;51.064;16.612;2024-02-21T10:56:28;10.40;99.90
26599;DHT22;14240;51.064;16.612;2024-02-21T10:58:54;10.50;99.90
26599;DHT22;14240;51.064;16.612;2024-02-21T11:01:22;10.50;99.90
26599;DHT22;14240;51.064;16.612;2024-02-21T11:03:52;10.50;99.90
26599;DHT22;14240;51.064;16.612;2024-02-21T11:06:20;10.60;99.90
26599;DHT22;14240;51.064;16.612;2024-02-21T11:08:47;10.70;99.90
26599;DHT22;14240;51.064;16.612;2024-02-21T11:11:14;10.70;99.90
26599;DHT22;14240;51.064;16.612;2024-02-21T11:13:43;10.70;99.90
26599;DHT22;14240;51.064;16.612;2024-02-21T11:16:21;10.70;99.90
26599;DHT22;14240;51.064;16.612;2024-02-21T11:18:47;10.70;99.90
26599;DHT22;14240;51.064;16.612;2024-02-21T11:21:13;10.80;99.90
26599;DHT22;14240;51.064;16.612;2024-02-21T11:23:38;10.90;99.90
26599;DHT22;14240;51.064;16.612;2024-02-21T11:28:31;11.00;99.90
26599;DHT22;14240;51.064;16.612;2024-02-21T11:31:07;11.10;99.90
26599;DHT22;14240;51.064;16.612;2024-02-21T11:33:34;11.20;99.90
26599;DHT22;14240;51.064;16.612;2024-02-21T11:36:00;11.20;99.90
26599;DHT22;14240;51.064;16.612;2024-02-21T11:38:26;11.20;99.90
26599;DHT22;14240;51.064;16.612;2024-02-21T11:40:51;11.30;99.90
26599;DHT22;14240;51.064;16.612;2024-02-21T11:43:17;11.30;99.90
26599;DHT22;14240;51.064;16.612;2024-02-21T11:45:43;11.30;99.90
26599;DHT22;14240;51.064;16.612;2024-02-21T11:48:09;11.40;99.90
26599;DHT22;14240;51.064;16.612;2024-02-21T11:50:35;11.40;99.90
26599;DHT22;14240;51.064;16.612;2024-02-21T11:53:02;11.30;99.90
26599;DHT22;14240;51.064;16.612;2024-02-21T11:55:28;11.30;99.90
26599;DHT22;14240;51.064;16.612;2024-02-21T11:57:54;11.30;99.90
26599;DHT22;14240;51.064;16.612;2024-02-21T12:00:20;11.30;99.90
26599;DHT22;14240;51.064;16.612;2024-02-21T12:02:46;11.30;99.90
26599;DHT22;14240;51.064;16.612;2024-02-21T12:05:12;11.30;99.90
26599;DHT22;14240;51.064;16.612;2024-02-21T12:07:38;11.20;99.90
26599;DHT22;14240;51.064;16.612;2024-02-21T12:10:10;11.20;99.90
26599;DHT22;14240;51.064;16.612;2024-02-21T12:12:37;11.20;99.90
26599;DHT22;14240;51.064;16.612;2024-02-21T12:15:06;11.30;99.90
26599;DHT22;14240;51.064;16.612;2024-02-21T12:17:36;11.20;99.90
26599;DHT22;14240;51.064;16.612;2024-02-21T12:20:05;11.20;99.90
26599;DHT22;14240;51.064;16.612;2024-02-21T12:22:35;11.30;99.90
26599;DHT22;14240;51.064;16.612;2024-02-21T12:25:15;11.20;99.90
26599;DHT22;14240;51.064;16.612;2024-02-21T12:27:41;11.20;99.90
26599;DHT22;14240;51.064;16.612;2024-02-21T12:30:07;11.20;99.90
26599;DHT22;14240;51.064;16.612;2024-02-21T12:32:35;11.20;99.90
26599;DHT22;14240;51.064;16.612;2024-02-21T12:35:01;11.20;99.90
26599;DHT22;14240;51.064;16.612;2024-02-21T12:37:28;11.20;99.90
26599;DHT22;14240;51.064;16.612;2024-02-21T12:39:53;11.20;99.90
26599;DHT22;14240;51.064;16.612;2024-02-21T12:42:19;11.20;99.90
26599;DHT22;14240;51.064;16.612;2024-02-21T12:44:45;11.20;99.90
26599;DHT22;14240;51.064;16.612;2024-02-21T12:47:11;11.20;99.90
26599;DHT22;14240;51.064;16.612;2024-02-21T12:49:37;11.20;99.90
26599;DHT22;14240;51.064;16.612;2024-02-21T12:52:03;11.30;99.90
26599;DHT22;14240;51.064;16.612;2024-02-21T12:54:29;11.30;99.90
26599;DHT22;14240;51.064;16.612;2024-02-21T12:56:56;11.20;99.90
26599;DHT22;14240;51.064;16.612;2024-02-21T12:59:22;11.20;99.90
26599;DHT22;14240;51.064;16.612;2024-02-21T13:01:48;11.20;99.90
26599;DHT22;14240;51.064;16.612;2024-02-21T13:04:14;11.20;99.90
26599;DHT22;14240;51.064;16.612;2024-02-21T13:06:40;11.20;99.90
26599;DHT22;14240;51.064;16.612;2024-02-21T13:09:05;11.20;99.90
26599;DHT22;14240;51.064;16.612;2024-02-21T13:11:34;11.20;99.90
26599;DHT22;14240;51.064;16.612;2024-02-21T13:14:00;11.30;99.90
26599;DHT22;14240;51.064;16.612;2024-02-21T13:16:25;11.30;99.90
26599;DHT22;14240;51.064;16.612;2024-02-21T13:18:54;11.30;99.90
26599;DHT22;14240;51.064;16.612;2024-02-21T13:21:20;11.40;99.90
26599;DHT22;14240;51.064;16.612;2024-02-21T13:23:45;11.40;99.90
26599;DHT22;14240;51.064;16.612;2024-02-21T13:26:11;11.40;99.90
26599;DHT22;14240;51.064;16.612;2024-02-21T13:28:38;11.50;99.90
26599;DHT22;14240;51.064;16.612;2024-02-21T13:31:04;11.40;99.90
26599;DHT22;14240;51.064;16.612;2024-02-21T13:33:30;11.50;99.90
26599;DHT22;14240;51.064;16.612;2024-02-21T13:35:55;11.50;99.90
26599;DHT22;14240;51.064;16.612;2024-02-21T13:38:21;11.50;99.90
26599;DHT22;14240;51.064;16.612;2024-02-21T13:40:47;11.50;99.90
26599;DHT22;14240;51.064;16.612;2024-02-21T13:43:13;11.50;99.90
26599;DHT22;14240;51.064;16.612;2024-02-21T13:45:39;11.50;99.90
26599;DHT22;14240;51.064;16.612;2024-02-21T13:48:07;11.50;99.90
26599;DHT22;14240;51.064;16.612;2024-02-21T13:50:36;11.60;99.90
26599;DHT22;14240;51.064;16.612;2024-02-21T13:53:08;11.60;99.90
26599;DHT22;14240;51.064;16.612;2024-02-21T13:55:34;11.70;99.90
26599;DHT22;14240;51.064;16.612;2024-02-21T13:58:00;11.80;99.90
26599;DHT22;14240;51.064;16.612;2024-02-21T14:00:26;11.80;99.90
26599;DHT22;14240;51.064;16.612;2024-02-21T14:02:52;11.80;99.90
26599;DHT22;14240;51.064;16.612;2024-02-21T14:05:20;11.80;99.90
26599;DHT22;14240;51.064;16.612;2024-02-21T14:07:45;11.90;99.90
26599;DHT22;14240;51.064;16.612;2024-02-21T14:10:11;11.90;99.90
26599;DHT22;14240;51.064;16.612;2024-02-21T14:12:37;11.90;99.90
26599;DHT22;14240;51.064;16.612;2024-02-21T14:15:04;11.90;99.90
26599;DHT22;14240;51.064;16.612;2024-02-21T14:17:30;12.00;99.90
26599;DHT22;14240;51.064;16.612;2024-02-21T14:19:56;12.00;99.90
26599;DHT22;14240;51.064;16.612;2024-02-21T14:22:22;12.00;99.90
26599;DHT22;14240;51.064;16.612;2024-02-21T14:24:47;11.90;99.90
26599;DHT22;14240;51.064;16.612;2024-02-21T14:27:13;11.90;99.90
26599;DHT22;14240;51.064;16.612;2024-02-21T14:29:39;11.90;99.90
26599;DHT22;14240;51.064;16.612;2024-02-21T14:32:04;11.80;99.90
26599;DHT22;14240;51.064;16.612;2024-02-21T14:34:31;12.00;99.90
26599;DHT22;14240;51.064;16.612;2024-02-21T14:36:57;11.80;99.90
26599;DHT22;14240;51.064;16.612;2024-02-21T14:39:22;11.70;99.90
26599;DHT22;14240;51.064;16.612;2024-02-21T14:41:48;11.80;99.90
26599;DHT22;14240;51.064;16.612;2024-02-21T14:44:14;11.70;99.90
26599;DHT22;14240;51.064;16.612;2024-02-21T14:46:40;11.70;99.90
26599;DHT22;14240;51.064;16.612;2024-02-21T14:49:05;11.70;99.90
26599;DHT22;14240;51.064;16.612;2024-02-21T14:51:31;11.70;99.90
26599;DHT22;14240;51.064;16.612;2024-02-21T14:53:57;11.70;99.90
26599;DHT22;14240;51.064;16.612;2024-02-21T14:56:23;11.70;99.90
26599;DHT22;14240;51.064;16.612;2024-02-21T14:58:49;11.70;99.90
26599;DHT22;14240;51.064;16.612;2024-02-21T15:01:15;11.70;99.90
26599;DHT22;14240;51.064;16.612;2024-02-21T15:03:41;11.60;99.90
26599;DHT22;14240;51.064;16.612;2024-02-21T15:06:08;11.50;99.90
26599;DHT22;14240;51.064;16.612;2024-02-21T15:08:34;11.50;99.90
26599;DHT22;14240;51.064;16.612;2024-02-21T15:10:59;11.30;99.90
26599;DHT22;14240;51.064;16.612;2024-02-21T15:13:25;11.50;99.90
26599;DHT22;14240;51.064;16.612;2024-02-21T15:15:51;11.50;99.90
26599;DHT22;14240;51.064;16.612;2024-02-21T15:18:17;11.60;99.90
26599;DHT22;14240;51.064;16.612;2024-02-21T15:20:44;11.50;99.90
26599;DHT22;14240;51.064;16.612;2024-02-21T15:23:10;11.50;99.90
26599;DHT22;14240;51.064;16.612;2024-02-21T15:25:36;11.50;99.90
26599;DHT22;14240;51.064;16.612;2024-02-21T15:28:03;11.50;99.90